createdAt,value
2018-06-23T00:01:05.299Z,9.10
2018-06-23T00:03:35.215Z,9.10
2018-06-23T00:06:05.127Z,9.10
2018-06-23T00:08:35.203Z,9.10
2018-06-23T00:11:05.111Z,9.00
2018-06-23T00:13:35.036Z,9.00
2018-06-23T00:16:05.121Z,9.00
2018-06-23T00:18:34.987Z,8.90
2018-06-23T00:21:04.916Z,8.90
2018-06-23T00:23:34.819Z,8.80
2018-06-23T00:26:09.954Z,8.80
2018-06-23T00:28:39.830Z,8.80
2018-06-23T00:31:09.731Z,8.70
2018-06-23T00:33:39.724Z,8.70
2018-06-23T00:36:09.595Z,8.70
2018-06-23T00:38:39.493Z,8.70
2018-06-23T00:41:09.388Z,8.70
2018-06-23T00:43:39.279Z,8.60
2018-06-23T00:46:09.175Z,8.60
2018-06-23T00:48:39.115Z,8.60
2018-06-23T00:51:08.951Z,8.60
2018-06-23T00:53:39.155Z,8.60
2018-06-23T00:56:09.043Z,8.50
2018-06-23T00:58:56.060Z,8.50
2018-06-23T01:01:25.951Z,8.50
2018-06-23T01:03:55.850Z,8.40
2018-06-23T01:06:26.598Z,8.40
2018-06-23T01:08:56.507Z,8.30
2018-06-23T01:11:26.551Z,8.30
2018-06-23T01:13:56.468Z,8.30
2018-06-23T01:16:26.350Z,8.30
2018-06-23T01:18:56.230Z,8.30
2018-06-23T01:21:26.123Z,8.30
2018-06-23T01:23:56.012Z,8.20
2018-06-23T01:26:25.914Z,8.20
2018-06-23T01:28:55.800Z,8.20
2018-06-23T01:31:25.915Z,8.20
2018-06-23T01:33:55.763Z,8.20
2018-06-23T01:36:25.660Z,8.30
2018-06-23T01:38:55.534Z,8.20
2018-06-23T01:41:25.434Z,8.20
2018-06-23T01:43:55.463Z,8.20
2018-06-23T01:46:25.356Z,8.10
2018-06-23T01:48:55.303Z,8.10
2018-06-23T01:51:26.102Z,8.10
2018-06-23T01:53:55.986Z,8.00
2018-06-23T01:58:55.667Z,8.00
2018-06-23T02:01:25.563Z,8.00
2018-06-23T02:03:55.446Z,7.90
2018-06-23T02:06:25.339Z,7.90
2018-06-23T02:08:55.398Z,7.90
2018-06-23T02:11:25.307Z,7.90
2018-06-23T02:14:00.411Z,7.90
2018-06-23T02:16:35.654Z,7.90
2018-06-23T02:19:10.843Z,8.00
2018-06-23T02:21:46.386Z,8.00
2018-06-23T02:24:21.503Z,8.00
2018-06-23T02:26:56.731Z,8.10
2018-06-23T02:29:31.814Z,8.00
2018-06-23T02:32:06.923Z,8.00
2018-06-23T02:34:42.012Z,7.90
2018-06-23T02:37:11.887Z,8.00
2018-06-23T02:39:41.946Z,7.90
2018-06-23T02:42:11.837Z,7.90
2018-06-23T02:44:41.733Z,7.90
2018-06-23T02:47:11.637Z,7.90
2018-06-23T02:49:41.763Z,7.80
2018-06-23T02:52:11.658Z,7.80
2018-06-23T02:54:41.558Z,7.90
2018-06-23T02:57:11.447Z,7.80
2018-06-23T02:59:41.603Z,7.80
2018-06-23T03:02:11.494Z,7.80
2018-06-23T03:04:41.392Z,7.80
2018-06-23T03:07:11.299Z,7.80
2018-06-23T03:09:41.448Z,7.80
2018-06-23T03:12:11.346Z,7.80
2018-06-23T03:14:41.427Z,7.80
2018-06-23T03:17:15.351Z,7.80
2018-06-23T03:19:48.249Z,7.80
2018-06-23T03:22:18.259Z,7.80
2018-06-23T03:24:48.155Z,7.80
2018-06-23T03:27:18.131Z,7.90
2018-06-23T03:29:48.012Z,7.90
2018-06-23T03:32:17.906Z,7.90
2018-06-23T03:34:47.821Z,8.00
2018-06-23T03:37:17.726Z,8.00
2018-06-23T03:39:47.622Z,8.00
2018-06-23T03:42:17.519Z,8.00
2018-06-23T03:44:47.430Z,8.10
2018-06-23T03:47:17.322Z,8.20
2018-06-23T03:49:47.235Z,8.20
2018-06-23T03:52:17.122Z,8.20
2018-06-23T03:54:47.141Z,8.30
2018-06-23T03:57:16.987Z,8.20
2018-06-23T03:59:46.942Z,8.30
2018-06-23T04:02:16.830Z,8.30
2018-06-23T04:04:46.730Z,8.30
2018-06-23T04:07:16.627Z,8.40
2018-06-23T04:09:46.530Z,8.40
2018-06-23T04:12:16.415Z,8.50
2018-06-23T04:14:46.310Z,8.50
2018-06-23T04:17:16.214Z,8.50
2018-06-23T04:19:46.485Z,8.50
2018-06-23T04:22:16.382Z,8.50
2018-06-23T04:24:46.307Z,8.50
2018-06-23T04:27:16.307Z,8.40
2018-06-23T04:29:46.162Z,8.40
2018-06-23T04:32:16.427Z,8.40
2018-06-23T04:34:46.424Z,8.50
2018-06-23T04:37:16.327Z,8.40
2018-06-23T04:39:46.257Z,8.50
2018-06-23T04:42:16.122Z,8.60
2018-06-23T04:44:46.030Z,8.60
2018-06-23T04:47:15.919Z,8.70
2018-06-23T04:49:45.881Z,8.70
2018-06-23T04:52:15.787Z,8.80
2018-06-23T04:54:45.883Z,8.80
2018-06-23T04:57:15.811Z,8.90
2018-06-23T04:59:45.726Z,8.90
2018-06-23T05:02:15.716Z,8.90
2018-06-23T05:04:46.303Z,8.90
2018-06-23T05:07:16.642Z,9.00
2018-06-23T05:09:46.535Z,9.00
2018-06-23T05:12:16.668Z,9.00
2018-06-23T05:14:46.690Z,9.10
2018-06-23T05:17:16.617Z,9.10
2018-06-23T05:19:46.545Z,9.10
2018-06-23T05:22:16.398Z,9.00
2018-06-23T05:24:46.306Z,9.00
2018-06-23T05:27:16.198Z,9.10
2018-06-23T05:29:46.219Z,9.20
2018-06-23T05:32:16.118Z,9.30
2018-06-23T05:34:46.015Z,9.50
2018-06-23T05:37:15.959Z,9.70
2018-06-23T05:39:46.207Z,9.90
2018-06-23T05:42:16.123Z,10.10
2018-06-23T05:44:46.078Z,10.30
2018-06-23T05:47:15.974Z,10.50
2018-06-23T05:49:51.111Z,10.70
2018-06-23T05:52:26.306Z,10.90
2018-06-23T05:55:01.412Z,11.10
2018-06-23T05:57:36.615Z,11.30
2018-06-23T06:00:11.830Z,11.40
2018-06-23T06:02:41.988Z,11.60
2018-06-23T06:05:11.907Z,11.80
2018-06-23T06:07:42.286Z,11.90
2018-06-23T06:12:42.063Z,12.10
2018-06-23T06:15:11.975Z,12.30
2018-06-23T06:17:42.163Z,12.40
2018-06-23T06:20:14.466Z,12.60
2018-06-23T06:22:45.499Z,12.50
2018-06-23T06:25:16.113Z,12.30
2018-06-23T06:27:46.414Z,12.20
2018-06-23T06:30:16.336Z,12.00
2018-06-23T06:32:46.243Z,11.80
2018-06-23T06:35:16.189Z,11.70
2018-06-23T06:37:46.258Z,11.60
2018-06-23T06:40:16.166Z,11.70
2018-06-23T06:42:46.071Z,11.80
2018-06-23T06:45:15.983Z,11.80
2018-06-23T06:47:46.216Z,12.00
2018-06-23T06:50:16.122Z,12.10
2018-06-23T06:52:46.090Z,12.30
2018-06-23T06:55:16.015Z,12.60
2018-06-23T06:57:46.062Z,12.90
2018-06-23T07:00:15.986Z,13.50
2018-06-23T07:02:45.890Z,13.80
2018-06-23T07:05:15.831Z,14.40
2018-06-23T07:07:46.192Z,15.20
2018-06-23T07:10:16.134Z,15.60
2018-06-23T07:12:46.043Z,15.60
2018-06-23T07:15:16.914Z,16.00
2018-06-23T07:17:47.027Z,15.90
2018-06-23T07:20:16.962Z,15.80
2018-06-23T07:22:46.851Z,15.50
2018-06-23T07:25:16.779Z,15.40
2018-06-23T07:27:47.114Z,15.70
2018-06-23T07:30:17.021Z,16.20
2018-06-23T07:32:46.923Z,16.60
2018-06-23T07:35:16.965Z,17.50
2018-06-23T07:37:47.727Z,17.70
2018-06-23T07:40:17.647Z,17.90
2018-06-23T07:42:47.567Z,18.10
2018-06-23T07:45:17.602Z,18.50
2018-06-23T07:50:17.311Z,18.40
2018-06-23T07:52:47.227Z,18.70
2018-06-23T07:55:17.131Z,19.00
2018-06-23T07:57:47.250Z,19.10
2018-06-23T08:00:17.147Z,18.50
2018-06-23T08:02:47.058Z,17.80
2018-06-23T08:05:16.971Z,17.10
2018-06-23T08:07:46.934Z,16.40
2018-06-23T08:10:16.903Z,15.80
2018-06-23T08:12:46.773Z,15.30
2018-06-23T08:15:16.674Z,15.30
2018-06-23T08:17:46.816Z,15.60
2018-06-23T08:20:16.719Z,16.10
2018-06-23T08:22:46.627Z,16.60
2018-06-23T08:25:16.535Z,16.90
2018-06-23T08:27:46.513Z,17.00
2018-06-23T08:30:16.407Z,17.20
2018-06-23T08:32:46.311Z,17.50
2018-06-23T08:35:16.222Z,17.50
2018-06-23T08:37:46.189Z,17.40
2018-06-23T08:40:16.503Z,17.00
2018-06-23T08:42:46.455Z,16.60
2018-06-23T08:45:16.391Z,16.30
2018-06-23T08:47:46.313Z,16.20
2018-06-23T08:50:16.224Z,16.60
2018-06-23T08:52:46.136Z,17.10
2018-06-23T08:55:16.128Z,17.30
2018-06-23T08:57:46.002Z,17.50
2018-06-23T09:02:45.608Z,17.70
2018-06-23T09:07:45.147Z,18.30
2018-06-23T09:10:15.083Z,18.20
2018-06-23T09:12:44.996Z,18.10
2018-06-23T09:15:15.431Z,18.20
2018-06-23T09:17:45.451Z,18.20
2018-06-23T09:20:15.360Z,18.30
2018-06-23T09:22:45.272Z,18.20
2018-06-23T09:25:15.228Z,18.00
2018-06-23T09:27:45.115Z,17.90
2018-06-23T09:30:15.131Z,17.70
2018-06-23T09:32:44.989Z,17.90
2018-06-23T09:35:14.902Z,18.10
2018-06-23T09:37:44.832Z,18.30
2018-06-23T09:40:14.839Z,18.20
2018-06-23T09:42:44.870Z,18.20
2018-06-23T09:45:14.736Z,17.80
2018-06-23T09:47:44.655Z,17.60
2018-06-23T09:50:14.555Z,17.40
2018-06-23T09:52:44.522Z,17.20
2018-06-23T09:55:14.432Z,17.50
2018-06-23T09:57:44.447Z,17.70
2018-06-23T10:00:16.816Z,17.90
2018-06-23T10:02:47.881Z,17.90
2018-06-23T10:05:17.734Z,18.20
2018-06-23T10:07:47.647Z,18.30
2018-06-23T10:10:17.610Z,18.40
2018-06-23T10:12:47.526Z,18.50
2018-06-23T10:15:17.429Z,18.50
2018-06-23T10:17:47.341Z,18.60
2018-06-23T10:20:17.267Z,18.60
2018-06-23T10:22:47.207Z,18.70
2018-06-23T10:25:17.154Z,18.90
2018-06-23T10:27:47.095Z,19.00
2018-06-23T10:30:17.018Z,19.30
2018-06-23T10:32:46.951Z,19.50
2018-06-23T10:35:16.910Z,19.60
2018-06-23T10:37:46.880Z,19.70
2018-06-23T10:40:16.805Z,19.80
2018-06-23T10:42:46.710Z,19.70
2018-06-23T10:45:16.658Z,19.60
2018-06-23T10:47:46.566Z,19.40
2018-06-23T10:50:17.506Z,19.30
2018-06-23T10:52:47.434Z,19.30
2018-06-23T10:55:17.623Z,19.30
2018-06-23T10:57:48.013Z,19.30
2018-06-23T11:00:17.962Z,19.50
2018-06-23T11:02:47.881Z,19.70
2018-06-23T11:05:17.799Z,19.50
2018-06-23T11:07:47.711Z,19.80
2018-06-23T11:10:17.622Z,19.80
2018-06-23T11:12:52.738Z,20.00
2018-06-23T11:15:22.647Z,19.90
2018-06-23T11:17:52.985Z,19.70
2018-06-23T11:20:22.883Z,19.50
2018-06-23T11:22:52.790Z,19.80
2018-06-23T11:25:22.706Z,20.10
2018-06-23T11:27:52.915Z,20.10
2018-06-23T11:30:22.818Z,20.30
2018-06-23T11:32:52.786Z,20.40
2018-06-23T11:35:22.687Z,20.30
2018-06-23T11:37:53.287Z,20.50
2018-06-23T11:40:23.226Z,20.40
2018-06-23T11:42:53.161Z,19.80
2018-06-23T11:45:23.087Z,19.70
2018-06-23T11:47:53.364Z,20.00
2018-06-23T11:50:23.310Z,20.30
2018-06-23T11:52:53.215Z,20.50
2018-06-23T11:55:23.173Z,20.80
2018-06-23T11:57:53.375Z,21.30
2018-06-23T12:00:23.311Z,21.20
2018-06-23T12:02:53.227Z,21.40
2018-06-23T12:05:23.388Z,21.60
2018-06-23T12:07:53.929Z,21.70
2018-06-23T12:10:23.854Z,21.30
2018-06-23T12:12:53.786Z,21.40
2018-06-23T12:17:53.439Z,21.70
2018-06-23T12:20:23.470Z,21.90
2018-06-23T12:22:53.502Z,22.20
2018-06-23T12:25:23.428Z,22.10
2018-06-23T12:27:53.766Z,22.30
2018-06-23T12:30:23.832Z,22.20
2018-06-23T12:32:53.726Z,22.10
2018-06-23T12:35:23.860Z,22.10
2018-06-23T12:37:54.778Z,22.40
2018-06-23T12:40:24.719Z,22.70
2018-06-23T12:42:54.670Z,22.70
2018-06-23T12:45:24.699Z,22.70
2018-06-23T12:47:55.274Z,22.30
2018-06-23T12:50:25.179Z,22.40
2018-06-23T12:52:55.081Z,22.50
2018-06-23T12:57:55.365Z,22.80
2018-06-23T13:00:25.236Z,22.90
2018-06-23T13:02:55.263Z,22.80
2018-06-23T13:05:25.184Z,22.50
2018-06-23T13:07:55.353Z,22.30
2018-06-23T13:10:25.251Z,22.00
2018-06-23T13:12:55.202Z,22.20
2018-06-23T13:15:25.119Z,22.20
2018-06-23T13:17:55.261Z,21.90
2018-06-23T13:20:25.171Z,21.70
2018-06-23T13:22:55.074Z,21.40
2018-06-23T13:25:24.983Z,21.40
2018-06-23T13:27:55.240Z,21.80
2018-06-23T13:30:25.110Z,22.40
2018-06-23T13:32:55.027Z,22.60
2018-06-23T13:35:25.037Z,22.70
2018-06-23T13:37:55.452Z,22.80
2018-06-23T13:40:25.356Z,22.40
2018-06-23T13:42:55.259Z,22.10
2018-06-23T13:45:25.188Z,22.20
2018-06-23T13:47:55.558Z,22.20
2018-06-23T13:50:25.456Z,21.90
2018-06-23T13:52:55.433Z,21.80
2018-06-23T13:55:25.304Z,21.60
2018-06-23T13:57:55.432Z,21.60
2018-06-23T14:00:25.346Z,21.60
2018-06-23T14:02:55.257Z,21.50
2018-06-23T14:05:25.178Z,21.40
2018-06-23T14:07:55.252Z,21.30
2018-06-23T14:10:25.170Z,21.10
2018-06-23T14:12:55.076Z,21.10
2018-06-23T14:15:24.988Z,20.80
2018-06-23T14:17:55.146Z,20.80
2018-06-23T14:20:25.056Z,20.70
2018-06-23T14:22:54.943Z,20.70
2018-06-23T14:25:24.862Z,20.90
2018-06-23T14:27:54.842Z,21.00
2018-06-23T14:30:24.771Z,20.90
2018-06-23T14:32:54.668Z,20.90
2018-06-23T14:35:24.574Z,20.90
2018-06-23T14:37:54.534Z,20.90
2018-06-23T14:40:24.478Z,21.10
2018-06-23T14:42:54.386Z,21.30
2018-06-23T14:45:24.294Z,21.50
2018-06-23T14:47:54.223Z,21.80
2018-06-23T14:50:24.125Z,21.60
2018-06-23T14:52:54.101Z,21.20
2018-06-23T14:55:24.122Z,20.80
2018-06-23T14:57:54.345Z,20.40
2018-06-23T15:00:24.236Z,20.20
2018-06-23T15:02:54.367Z,20.10
2018-06-23T15:05:24.268Z,20.30
2018-06-23T15:07:54.193Z,20.70
2018-06-23T15:10:41.205Z,20.90
2018-06-23T15:13:17.323Z,20.90
2018-06-23T15:15:47.232Z,20.70
2018-06-23T15:18:17.127Z,20.60
2018-06-23T15:20:47.022Z,20.40
2018-06-23T15:23:16.927Z,20.20
2018-06-23T15:25:46.831Z,20.10
2018-06-23T15:28:16.726Z,19.90
2018-06-23T15:30:46.638Z,19.90
2018-06-23T15:33:16.602Z,20.00
2018-06-23T15:35:46.565Z,19.90
2018-06-23T15:38:16.585Z,19.70
2018-06-23T15:40:46.384Z,19.60
2018-06-23T15:43:16.406Z,19.70
2018-06-23T15:45:46.315Z,20.00
2018-06-23T15:48:16.219Z,20.40
2018-06-23T15:50:46.165Z,20.80
2018-06-23T15:53:16.128Z,20.80
2018-06-23T15:55:46.097Z,20.60
2018-06-23T15:58:16.028Z,20.40
2018-06-23T16:00:45.953Z,19.90
2018-06-23T16:03:16.146Z,19.70
2018-06-23T16:05:46.091Z,19.70
2018-06-23T16:08:16.191Z,19.40
2018-06-23T16:10:46.110Z,19.20
2018-06-23T16:13:20.114Z,19.20
2018-06-23T16:15:54.546Z,19.10
2018-06-23T16:18:24.569Z,19.00
2018-06-23T16:20:55.007Z,19.00
2018-06-23T16:23:24.938Z,19.20
2018-06-23T16:25:54.863Z,19.30
2018-06-23T16:28:24.722Z,19.40
2018-06-23T16:30:54.657Z,19.60
2018-06-23T16:33:24.652Z,19.90
2018-06-23T16:35:54.535Z,20.10
2018-06-23T16:38:24.509Z,20.10
2018-06-23T16:40:55.168Z,20.60
2018-06-23T16:43:25.078Z,20.50
2018-06-23T16:45:54.989Z,20.20
2018-06-23T16:48:24.895Z,20.30
2018-06-23T16:50:54.798Z,20.70
2018-06-23T16:53:24.709Z,21.10
2018-06-23T16:55:54.602Z,21.70
2018-06-23T16:58:24.578Z,21.90
2018-06-23T17:00:54.686Z,22.20
2018-06-23T17:03:24.598Z,22.60
2018-06-23T17:06:00.095Z,22.40
2018-06-23T17:08:35.215Z,22.30
2018-06-23T17:11:10.614Z,22.20
2018-06-23T17:13:45.726Z,21.60
2018-06-23T17:16:20.859Z,20.60
2018-06-23T17:18:50.771Z,20.40
2018-06-23T17:21:25.990Z,20.40
2018-06-23T17:24:01.172Z,20.30
2018-06-23T17:26:36.335Z,20.00
2018-06-23T17:29:11.423Z,19.80
2018-06-23T17:31:46.550Z,19.60
2018-06-23T17:34:17.163Z,19.60
2018-06-23T17:36:47.074Z,19.60
2018-06-23T17:39:17.008Z,19.50
2018-06-23T17:41:47.002Z,19.30
2018-06-23T17:44:16.863Z,19.10
2018-06-23T17:46:46.794Z,18.90
2018-06-23T17:49:16.718Z,18.70
2018-06-23T17:51:46.617Z,18.50
2018-06-23T17:54:16.560Z,18.20
2018-06-23T17:56:46.476Z,18.10
2018-06-23T17:59:16.377Z,18.10
2018-06-23T18:01:46.276Z,18.00
2018-06-23T18:04:16.187Z,17.90
2018-06-23T18:06:46.111Z,17.80
2018-06-23T18:09:16.037Z,17.70
2018-06-23T18:11:46.014Z,17.70
2018-06-23T18:14:15.911Z,17.60
2018-06-23T18:16:45.806Z,17.50
2018-06-23T18:19:15.923Z,17.50
2018-06-23T18:21:45.818Z,17.50
2018-06-23T18:24:15.731Z,17.50
2018-06-23T18:26:45.687Z,17.50
2018-06-23T18:29:15.600Z,17.60
2018-06-23T18:31:45.570Z,17.60
2018-06-23T18:34:15.424Z,17.60
2018-06-23T18:36:45.464Z,17.50
2018-06-23T18:39:15.902Z,17.60
2018-06-23T18:41:45.795Z,17.60
2018-06-23T18:44:16.524Z,17.60
2018-06-23T18:46:46.436Z,17.60
2018-06-23T18:49:16.346Z,17.50
2018-06-23T18:51:46.271Z,17.50
2018-06-23T18:54:16.227Z,17.40
2018-06-23T18:56:46.182Z,17.30
2018-06-23T18:59:16.102Z,17.20
2018-06-23T19:01:51.207Z,17.10
2018-06-23T19:04:20.860Z,16.90
2018-06-23T19:06:50.473Z,16.90
2018-06-23T19:09:20.460Z,16.80
2018-06-23T19:11:50.291Z,16.70
2018-06-23T19:14:20.206Z,16.60
2018-06-23T19:16:50.101Z,16.50
2018-06-23T19:19:20.004Z,16.40
2018-06-23T19:21:49.913Z,16.20
2018-06-23T19:24:19.821Z,16.10
2018-06-23T19:26:49.726Z,16.10
2018-06-23T19:31:49.210Z,15.80
2018-06-23T19:34:19.139Z,15.60
2018-06-23T19:36:49.134Z,15.40
2018-06-23T19:39:19.062Z,15.30
2018-06-23T19:41:48.938Z,15.10
2018-06-23T19:44:18.917Z,15.00
2018-06-23T19:46:48.744Z,14.80
2018-06-23T19:49:18.652Z,14.70
2018-06-23T19:51:48.552Z,14.60
2018-06-23T19:54:18.463Z,14.40
2018-06-23T19:56:48.460Z,14.20
2018-06-23T19:59:18.319Z,14.10
2018-06-23T20:01:48.268Z,13.90
2018-06-23T20:04:18.318Z,13.80
2018-06-23T20:06:48.175Z,13.70
2018-06-23T20:09:18.192Z,13.60
2018-06-23T20:11:48.133Z,13.50
2018-06-23T20:14:17.994Z,13.50
2018-06-23T20:16:47.939Z,13.50
2018-06-23T20:19:17.855Z,13.40
2018-06-23T20:21:47.770Z,13.30
2018-06-23T20:24:17.683Z,14.00
2018-06-23T20:26:47.599Z,13.20
2018-06-23T20:29:17.611Z,13.10
2018-06-23T20:31:47.540Z,13.00
2018-06-23T20:34:17.447Z,13.00
2018-06-23T20:36:47.623Z,12.80
2018-06-23T20:39:17.491Z,12.70
2018-06-23T20:41:47.511Z,12.60
2018-06-23T20:44:17.359Z,12.50
2018-06-23T20:46:47.263Z,12.50
2018-06-23T20:49:17.286Z,12.40
2018-06-23T20:51:47.213Z,12.40
2018-06-23T20:54:17.102Z,12.40
2018-06-23T20:56:47.153Z,12.30
2018-06-23T20:59:17.027Z,12.30
2018-06-23T21:01:46.976Z,12.20
2018-06-23T21:04:17.041Z,12.20
2018-06-23T21:06:46.939Z,12.20
2018-06-23T21:09:16.865Z,12.10
2018-06-23T21:11:46.793Z,12.10
2018-06-23T21:14:16.777Z,12.00
2018-06-23T21:16:46.753Z,12.00
2018-06-23T21:19:16.667Z,12.00
2018-06-23T21:21:46.600Z,11.90
2018-06-23T21:24:16.572Z,11.90
2018-06-23T21:26:46.500Z,11.90
2018-06-23T21:29:16.501Z,11.80
2018-06-23T21:31:47.290Z,11.80
2018-06-23T21:34:17.264Z,11.70
2018-06-23T21:36:47.279Z,11.80
2018-06-23T21:39:17.269Z,11.80
2018-06-23T21:41:47.208Z,11.80
2018-06-23T21:44:17.059Z,11.70
2018-06-23T21:46:46.963Z,11.70
2018-06-23T21:49:16.882Z,11.60
2018-06-23T21:51:46.808Z,11.50
2018-06-23T21:54:16.736Z,11.50
2018-06-23T21:56:46.666Z,11.40
2018-06-23T21:59:16.697Z,11.40
2018-06-23T22:01:46.743Z,11.30
2018-06-23T22:04:16.756Z,11.30
2018-06-23T22:06:46.637Z,11.30
2018-06-23T22:09:16.615Z,11.20
2018-06-23T22:11:46.544Z,11.20
2018-06-23T22:14:16.472Z,11.30
2018-06-23T22:16:46.343Z,11.10
2018-06-23T22:19:16.252Z,11.00
2018-06-23T22:21:46.257Z,11.00
2018-06-23T22:24:16.186Z,11.00
2018-06-23T22:26:46.114Z,11.00
2018-06-23T22:29:16.044Z,11.00
2018-06-23T22:31:45.971Z,11.10
2018-06-23T22:34:15.898Z,11.10
2018-06-23T22:36:45.839Z,11.10
2018-06-23T22:39:15.859Z,11.10
2018-06-23T22:41:45.788Z,11.10
2018-06-23T22:44:15.642Z,11.10
2018-06-23T22:46:45.571Z,11.00
2018-06-23T22:49:15.466Z,11.00
2018-06-23T22:51:45.456Z,11.00
2018-06-23T22:54:15.555Z,11.00
2018-06-23T22:56:45.471Z,11.00
2018-06-23T22:59:15.383Z,11.10
2018-06-23T23:01:45.335Z,11.00
2018-06-23T23:04:15.438Z,11.10
2018-06-23T23:06:45.481Z,11.10
2018-06-23T23:09:15.375Z,11.20
2018-06-23T23:11:45.303Z,11.20
2018-06-23T23:14:15.267Z,11.30
2018-06-23T23:16:45.136Z,11.30
2018-06-23T23:19:15.041Z,11.40
2018-06-23T23:21:44.968Z,11.40
2018-06-23T23:24:14.867Z,11.40
2018-06-23T23:26:44.955Z,11.40
2018-06-23T23:29:14.857Z,11.50
2018-06-23T23:31:44.870Z,11.50
2018-06-23T23:34:14.800Z,11.50
2018-06-23T23:36:45.033Z,11.60
2018-06-23T23:39:14.962Z,11.60
2018-06-23T23:41:44.838Z,11.60
2018-06-23T23:44:14.751Z,11.60
2018-06-23T23:46:44.683Z,11.60
2018-06-23T23:49:14.587Z,11.60
2018-06-23T23:51:44.479Z,11.70
2018-06-23T23:54:14.430Z,11.70
2018-06-23T23:56:44.319Z,11.80
2018-06-23T23:59:14.319Z,11.80
